Time;durP1;ratioP1;P1;durP2;ratioP2;P2;SDS_P1;SDS_P2;PMS_P1;PMS_P2;Temp;Humidity;BMP_temperature;BMP_pressure;BME280_temperature;BME280_humidity;BME280_pressure;Samples;Min_cycle;Max_cycle;Signal;HPM_P1;HPM_P2
2021/03/16 00:02:22;;;;;;;18.52;3.50;;;;;;;5.50;81.95;102254.38;5094307;28;20085;-40
2021/03/16 00:04:47;;;;;;;21.33;3.43;;;;;;;5.52;82.07;102256.91;5094657;28;20035;-40
2021/03/16 00:07:14;;;;;;;20.77;4.27;;;;;;;5.51;81.99;102255.22;5094530;28;20483;-40
2021/03/16 00:09:39;;;;;;;19.08;3.60;;;;;;;5.48;81.62;102252.88;5094792;28;20032;-40
2021/03/16 00:12:05;;;;;;;18.87;4.83;;;;;;;5.48;81.95;102264.44;5094778;28;20031;-40
2021/03/16 00:14:31;;;;;;;16.45;3.20;;;;;;;5.48;81.80;102267.13;5094385;28;20048;-40
2021/03/16 00:16:56;;;;;;;22.13;3.77;;;;;;;5.47;81.87;102272.66;5094351;28;20114;-40
2021/03/16 00:19:22;;;;;;;20.40;3.83;;;;;;;5.48;81.65;102263.63;5094597;28;20380;-40
2021/03/16 00:21:47;;;;;;;23.70;4.27;;;;;;;5.49;81.78;102276.84;5094012;28;20103;-40
2021/03/16 00:24:13;;;;;;;18.83;3.57;;;;;;;5.49;82.02;102276.84;5094827;28;20054;-40
2021/03/16 00:26:38;;;;;;;25.25;3.70;;;;;;;5.43;82.09;102262.25;5094773;28;20063;-40
2021/03/16 00:29:05;;;;;;;21.23;3.92;;;;;;;5.50;81.70;102272.31;5094519;28;20034;-40
2021/03/16 00:31:30;;;;;;;24.10;4.18;;;;;;;5.48;81.53;102271.66;5094154;28;20086;-40
2021/03/16 00:33:55;;;;;;;17.80;3.43;;;;;;;5.48;81.93;102285.06;5094372;28;20027;-40
2021/03/16 00:36:21;;;;;;;19.17;3.80;;;;;;;5.45;81.70;102275.50;5094032;28;20460;-40
2021/03/16 00:38:46;;;;;;;18.70;3.80;;;;;;;5.44;81.66;102284.56;5093420;28;20020;-40
2021/03/16 00:41:12;;;;;;;18.33;4.00;;;;;;;5.40;81.43;102286.72;5094351;28;20036;-40
2021/03/16 00:43:37;;;;;;;22.30;4.73;;;;;;;5.39;81.60;102286.88;5093766;28;20097;-40
2021/03/16 00:46:02;;;;;;;24.07;3.83;;;;;;;5.38;81.55;102283.38;5094217;28;20050;-40
2021/03/16 00:48:28;;;;;;;17.93;3.43;;;;;;;5.37;81.44;102289.72;5094183;28;20031;-40
2021/03/16 00:50:54;;;;;;;22.25;4.05;;;;;;;5.37;81.68;102294.25;5094372;28;20429;-40
2021/03/16 00:53:20;;;;;;;;;;;;;;;5.41;81.24;102291.06;5094243;28;20028;-40
2021/03/16 00:55:45;;;;;;;20.70;3.92;;;;;;;5.36;81.95;102287.19;5094278;28;19908;-40
2021/03/16 00:58:10;;;;;;;19.17;3.80;;;;;;;5.34;81.70;102283.84;5093804;28;20059;-40
2021/03/16 01:00:36;;;;;;;22.10;3.43;;;;;;;5.35;81.61;102291.72;5093822;28;20021;-40
2021/03/16 01:03:01;;;;;;;27.93;4.03;;;;;;;5.35;81.63;102286.34;5093683;28;20024;-40
2021/03/16 01:05:26;;;;;;;21.47;3.53;;;;;;;5.35;81.70;102297.09;5094521;28;20073;-40
2021/03/16 01:07:52;;;;;;;18.53;4.07;;;;;;;5.37;81.40;102289.72;5093282;28;20036;-39
2021/03/16 01:10:19;;;;;;;20.17;3.43;;;;;;;5.36;81.67;102292.56;5093797;28;20020;-40
2021/03/16 01:12:45;;;;;;;23.42;4.10;;;;;;;5.38;81.41;102294.09;5092818;28;20028;-40
2021/03/16 01:15:11;;;;;;;14.18;2.97;;;;;;;5.41;81.73;102296.44;5094690;28;20048;-40
2021/03/16 01:17:36;;;;;;;;;;;;;;;5.48;81.47;102303.84;5093038;28;20127;-40
2021/03/16 01:20:11;;;;;;;17.02;2.90;;;;;;;5.39;81.54;102306.50;5093299;28;20343;-40
2021/03/16 01:22:36;;;;;;;20.73;4.30;;;;;;;5.37;81.49;102299.63;5093417;28;20032;-40
2021/03/16 01:25:01;;;;;;;19.77;3.70;;;;;;;5.38;81.45;102306.66;5093820;28;20036;-40
2021/03/16 01:27:27;;;;;;;27.37;4.37;;;;;;;5.36;81.59;102304.13;5093744;28;20035;-40
2021/03/16 01:29:52;;;;;;;22.30;3.77;;;;;;;5.35;80.96;102306.97;5093453;28;20166;-40
2021/03/16 01:32:17;;;;;;;16.20;3.83;;;;;;;5.35;81.66;102307.81;5093646;28;20024;-40
2021/03/16 01:34:42;;;;;;;23.53;3.50;;;;;;;5.35;81.86;102307.81;5093749;28;20039;-40
2021/03/16 01:37:08;;;;;;;27.07;5.13;;;;;;;5.33;81.99;102304.47;5093294;28;20036;-40
2021/03/16 01:39:33;;;;;;;23.67;4.40;;;;;;;5.31;81.83;102313.66;5093389;28;20020;-40
2021/03/16 01:41:58;;;;;;;17.60;3.73;;;;;;;5.31;82.63;102310.97;5093088;28;20035;-40
2021/03/16 01:44:24;;;;;;;20.73;4.03;;;;;;;5.29;82.75;102313.00;5093270;28;20024;-40
2021/03/16 01:46:49;;;;;;;20.10;3.60;;;;;;;5.30;82.14;102317.34;5093344;28;20077;-40
2021/03/16 01:49:14;;;;;;;19.63;3.23;;;;;;;5.30;82.47;102323.56;5094144;28;20031;-40
2021/03/16 01:51:40;;;;;;;19.33;4.10;;;;;;;5.30;82.71;102320.03;5092925;28;20107;-40
2021/03/16 01:54:09;;;;;;;22.83;4.77;;;;;;;5.29;82.38;102311.16;5093856;28;20020;-40
2021/03/16 01:56:38;;;;;;;18.02;3.70;;;;;;;5.27;83.01;102315.84;5092824;28;20469;-40
2021/03/16 01:59:04;;;;;;;16.35;3.13;;;;;;;5.28;82.37;102312.16;5093443;28;20036;-40
2021/03/16 02:01:29;;;;;;;18.55;3.40;;;;;;;5.33;82.56;102317.03;5093455;28;20380;-42
2021/03/16 02:03:55;;;;;;;18.60;3.00;;;;;;;5.28;82.00;102322.88;5093479;28;20053;-40
2021/03/16 02:06:39;;;;;;;19.70;3.40;;;;;;;5.29;82.37;102319.19;5093136;28;20020;-40
2021/03/16 02:09:33;;;;;;;14.85;3.03;;;;;;;5.30;82.53;102320.88;5093066;28;20103;-40
2021/03/16 02:12:25;;;;;;;16.77;3.53;;;;;;;5.32;82.46;102318.88;5093084;28;20035;-40
2021/03/16 02:15:00;;;;;;;18.42;3.75;;;;;;;5.32;82.06;102323.38;5093784;28;20044;-40
2021/03/16 02:17:33;;;;;;;19.45;3.80;;;;;;;5.27;82.13;102318.53;5092862;28;20122;-40
2021/03/16 02:20:33;;;;;;;19.48;4.13;;;;;;;5.28;82.34;102324.72;5093621;28;20047;-41
2021/03/16 02:23:01;;;;;;;18.73;3.67;;;;;;;5.29;82.17;102319.19;5092861;28;20103;-40
2021/03/16 02:25:57;;;;;;;17.48;3.00;;;;;;;5.31;82.21;102321.72;5095620;28;20085;-40
2021/03/16 02:28:45;;;;;;;12.98;3.22;;;;;;;5.27;82.31;102321.22;5096154;28;20357;-40
2021/03/16 02:31:14;;;;;;;17.35;3.33;;;;;;;5.30;81.83;102318.19;5096884;28;20035;-40
2021/03/16 02:33:41;;;;;;;22.02;3.58;;;;;;;5.27;81.91;102321.22;5097058;28;20031;-40
2021/03/16 02:36:10;;;;;;;15.75;3.25;;;;;;;5.25;81.71;102325.88;5096225;28;20107;-40
2021/03/16 02:38:46;;;;;;;19.55;3.65;;;;;;;5.25;81.94;102333.91;5096718;28;20028;-40
2021/03/16 02:41:15;;;;;;;17.38;3.17;;;;;;;5.30;82.22;102336.97;5096177;28;20109;-40
2021/03/16 02:43:40;;;;;;;27.95;3.28;;;;;;;5.29;81.35;102335.28;5095761;28;20024;-40
2021/03/16 02:46:06;;;;;;;14.98;3.08;;;;;;;5.28;81.82;102332.78;5096665;28;20065;-40
2021/03/16 02:48:32;;;;;;;19.33;3.47;;;;;;;5.30;81.36;102336.97;5096024;28;20024;-40
2021/03/16 02:50:58;;;;;;;15.80;2.50;;;;;;;5.32;81.32;102339.47;5096380;28;20028;-40
2021/03/16 02:53:25;;;;;;;13.30;2.78;;;;;;;5.34;81.14;102334.81;5096784;28;20063;-40
2021/03/16 02:55:50;;;;;;;;;;;;;;;5.40;81.05;102337.69;5096392;28;20039;-40
2021/03/16 02:58:17;;;;;;;12.38;2.42;;;;;;;5.32;81.13;102339.47;5095849;28;20360;-40
2021/03/16 03:00:43;;;;;;;16.15;2.65;;;;;;;5.31;81.32;102341.31;5095670;28;20028;-40
2021/03/16 03:03:10;;;;;;;11.85;2.58;;;;;;;5.32;80.97;102340.34;5095841;28;20028;-40
2021/03/16 03:05:36;;;;;;;;;;;;;;;5.41;80.92;102344.72;5096209;28;20031;-40
2021/03/16 03:08:04;;;;;;;17.88;2.80;;;;;;;5.36;81.09;102341.69;5095754;28;20388;-40
2021/03/16 03:10:29;;;;;;;15.85;3.10;;;;;;;5.35;80.80;102336.50;5095659;28;20024;-40
2021/03/16 03:12:55;;;;;;;20.47;3.20;;;;;;;5.33;81.28;102342.03;5095659;28;20032;-40
2021/03/16 03:15:20;;;;;;;14.60;3.17;;;;;;;5.33;80.91;102342.03;5095691;28;20136;-40
2021/03/16 03:17:46;;;;;;;16.30;2.80;;;;;;;5.32;80.95;102344.84;5094486;28;20035;-40
2021/03/16 03:20:13;;;;;;;19.75;3.40;;;;;;;5.30;81.16;102338.81;5096082;28;20031;-40
2021/03/16 03:22:44;;;;;;;9.18;2.35;;;;;;;5.30;81.26;102352.22;5095073;28;20040;-40
2021/03/16 03:25:40;;;;;;;14.30;2.80;;;;;;;5.33;81.43;102350.06;5096227;28;20048;-40
2021/03/16 03:28:24;;;;;;;16.52;2.75;;;;;;;5.30;81.03;102353.06;5073160;28;20625;-40
2021/03/16 03:30:50;;;;;;;14.43;3.33;;;;;;;5.30;81.17;102350.38;5072993;28;20078;-40
2021/03/16 03:33:18;;;;;;;16.05;2.65;;;;;;;5.30;81.36;102363.78;5072811;28;20044;-40
2021/03/16 03:35:44;;;;;;;14.55;2.70;;;;;;;5.31;81.07;102360.09;5072586;28;20045;-40
2021/03/16 03:38:10;;;;;;;18.52;2.97;;;;;;;5.30;81.29;102363.78;5072473;28;20029;-40
2021/03/16 03:40:37;;;;;;;14.63;3.28;;;;;;;5.31;81.39;102367.31;5073089;28;20036;-40
2021/03/16 03:43:06;;;;;;;11.77;2.30;;;;;;;5.29;81.69;102367.47;5072683;28;20473;-40
2021/03/16 03:45:34;;;;;;;22.20;3.35;;;;;;;5.30;81.20;102366.47;5073326;28;20032;-40
2021/03/16 03:48:03;;;;;;;19.30;2.90;;;;;;;5.30;81.51;102362.94;5072308;28;20377;-40
2021/03/16 03:50:28;;;;;;;13.60;2.75;;;;;;;5.34;81.78;102361.63;5072424;28;20489;-40
2021/03/16 03:52:55;;;;;;;13.75;2.47;;;;;;;5.36;81.34;102370.34;5072468;28;20052;-40
2021/03/16 03:55:21;;;;;;;19.27;3.20;;;;;;;5.34;81.19;102373.19;5072999;28;20459;-40
2021/03/16 03:57:48;;;;;;;;;;;;;;;5.41;80.72;102366.19;5072505;28;20473;-40
2021/03/16 04:00:15;;;;;;;13.80;2.65;;;;;;;5.35;80.75;102377.56;5072165;28;19916;-40
2021/03/16 04:02:41;;;;;;;14.38;2.63;;;;;;;5.34;80.87;102385.78;5072038;28;20366;-40
2021/03/16 04:05:08;;;;;;;15.90;3.03;;;;;;;5.31;81.10;102370.81;5084939;28;20048;-40
2021/03/16 04:07:36;;;;;;;17.80;2.95;;;;;;;5.32;81.08;102383.25;5094983;28;20024;-40
2021/03/16 04:10:03;;;;;;;13.35;2.33;;;;;;;5.31;80.92;102373.50;5094515;28;20115;-40
2021/03/16 04:12:29;;;;;;;15.90;2.80;;;;;;;5.32;80.93;102382.41;5094495;28;20032;-40
2021/03/16 04:14:55;;;;;;;16.95;2.92;;;;;;;5.33;80.67;102379.56;5094682;28;20043;-40
2021/03/16 04:17:20;;;;;;;13.90;2.28;;;;;;;5.34;80.33;102381.25;5094360;28;20464;-40
2021/03/16 04:19:46;;;;;;;22.30;2.87;;;;;;;5.33;80.89;102376.91;5094683;28;20028;-40
2021/03/16 04:22:11;;;;;;;13.30;2.67;;;;;;;5.30;81.06;102384.41;5094567;28;20270;-40
2021/03/16 04:24:37;;;;;;;11.60;2.47;;;;;;;5.30;80.67;102384.41;5094908;28;20016;-40
2021/03/16 04:27:02;;;;;;;15.67;2.83;;;;;;;5.30;80.72;102379.88;5093989;28;20127;-41
2021/03/16 04:29:27;;;;;;;15.00;2.67;;;;;;;5.31;80.77;102386.91;5094502;28;20139;-40
2021/03/16 04:31:53;;;;;;;12.80;2.67;;;;;;;5.29;80.77;102394.31;5093826;28;20433;-40
2021/03/16 04:34:18;;;;;;;15.27;3.03;;;;;;;5.27;80.87;102390.94;5094605;28;20024;-40
2021/03/16 04:36:44;;;;;;;13.87;2.57;;;;;;;5.31;81.02;102397.66;5094485;28;20111;-40
2021/03/16 04:39:09;;;;;;;16.58;2.42;;;;;;;5.33;80.77;102405.56;5094327;28;20047;-40
2021/03/16 04:41:35;;;;;;;14.47;2.80;;;;;;;5.36;80.76;102405.22;5094078;28;20460;-40
2021/03/16 04:44:00;;;;;;;23.47;3.13;;;;;;;5.35;81.21;102403.56;5094103;28;20024;-40
2021/03/16 04:46:25;;;;;;;12.20;2.70;;;;;;;5.32;80.94;102403.84;5093436;28;20024;-40
2021/03/16 04:48:51;;;;;;;15.67;2.70;;;;;;;5.34;80.69;102401.88;5093743;28;20110;-40
2021/03/16 04:51:16;;;;;;;13.52;2.30;;;;;;;5.36;80.77;102407.91;5093875;28;20027;-40
2021/03/16 04:53:42;;;;;;;14.13;3.50;;;;;;;5.35;81.51;102399.03;5094480;28;20028;-40
2021/03/16 04:56:07;;;;;;;15.57;2.77;;;;;;;5.36;81.61;102406.06;5093977;28;20035;-40
2021/03/16 04:58:33;;;;;;;16.13;2.83;;;;;;;5.37;81.65;102401.56;5093412;28;20055;-40
2021/03/16 05:00:58;;;;;;;16.40;2.47;;;;;;;5.37;81.70;102393.53;5092715;28;20036;-40
2021/03/16 05:03:24;;;;;;;14.03;2.70;;;;;;;5.37;81.22;102402.41;5093644;28;20036;-40
2021/03/16 05:05:49;;;;;;;13.60;3.03;;;;;;;5.37;82.10;102396.19;5094044;28;20061;-40
2021/03/16 05:08:14;;;;;;;11.37;2.47;;;;;;;5.35;81.80;102403.56;5093371;28;20106;-40
2021/03/16 05:10:39;;;;;;;17.57;2.83;;;;;;;5.34;81.53;102407.25;5093687;28;20028;-40
2021/03/16 05:13:05;;;;;;;18.10;3.27;;;;;;;5.33;82.03;102408.25;5093887;28;20028;-40
2021/03/16 05:15:30;;;;;;;19.10;4.57;;;;;;;5.33;81.93;102405.56;5093942;28;20040;-40
2021/03/16 05:17:55;;;;;;;14.33;2.80;;;;;;;5.32;81.95;102403.84;5093460;28;20025;-40
2021/03/16 05:20:21;;;;;;;23.60;4.97;;;;;;;5.36;81.81;102411.44;5093615;28;20052;-40
2021/03/16 05:22:46;;;;;;;18.00;2.77;;;;;;;5.33;81.94;102403.72;5093531;28;20061;-40
2021/03/16 05:25:12;;;;;;;17.37;3.70;;;;;;;5.32;82.27;102418.13;5093252;28;20113;-40
2021/03/16 05:27:37;;;;;;;13.85;3.40;;;;;;;5.31;82.64;102419.13;5093712;28;20039;-40
2021/03/16 05:30:06;;;;;;;21.57;3.40;;;;;;;5.29;82.42;102415.75;5093779;28;20055;-40
2021/03/16 05:32:31;;;;;;;19.13;3.35;;;;;;;5.26;82.62;102415.22;5093677;28;20024;-40
2021/03/16 05:34:56;;;;;;;25.10;3.97;;;;;;;5.23;83.07;102410.19;5094222;28;20032;-40
2021/03/16 05:37:21;;;;;;;17.97;3.07;;;;;;;5.24;82.58;102418.06;5093606;28;20028;-40
2021/03/16 05:39:47;;;;;;;16.10;3.37;;;;;;;5.24;82.76;102423.44;5093606;28;20375;-41
2021/03/16 05:42:12;;;;;;;18.67;3.77;;;;;;;5.22;82.87;102422.75;5093550;28;20063;-41
2021/03/16 05:44:38;;;;;;;19.10;3.57;;;;;;;5.21;83.32;102422.91;5093362;28;20495;-40
2021/03/16 05:47:05;;;;;;;13.52;2.50;;;;;;;5.20;82.82;102424.75;5093479;28;20024;-40
2021/03/16 05:49:32;;;;;;;19.60;3.40;;;;;;;5.21;83.09;102425.59;5093251;28;20031;-40
2021/03/16 05:51:58;;;;;;;18.58;3.00;;;;;;;5.18;82.89;102426.75;5093213;28;20130;-40
2021/03/16 05:54:24;;;;;;;14.80;3.30;;;;;;;5.18;82.94;102428.59;5093763;28;20437;-40
2021/03/16 05:56:50;;;;;;;20.52;2.92;;;;;;;5.17;83.05;102435.78;5093063;28;20107;-40
2021/03/16 05:59:15;;;;;;;13.65;2.97;;;;;;;5.18;83.12;102440.16;5096023;28;20492;-40
2021/03/16 06:01:41;;;;;;;14.00;3.30;;;;;;;5.16;83.49;102444.81;5096998;28;20036;-40
2021/03/16 06:04:06;;;;;;;16.37;2.60;;;;;;;5.16;82.84;102445.66;5096743;28;20031;-40
2021/03/16 06:06:32;;;;;;;17.03;2.97;;;;;;;5.20;83.47;102443.53;5097229;28;20035;-40
2021/03/16 06:08:58;;;;;;;19.63;3.23;;;;;;;5.20;83.12;102440.00;5097686;28;20024;-40
2021/03/16 06:11:26;;;;;;;20.92;3.13;;;;;;;5.22;83.40;102446.03;5096677;28;20050;-40
2021/03/16 06:13:54;;;;;;;15.65;3.15;;;;;;;5.23;82.79;102437.00;5096897;28;20056;-40
2021/03/16 06:16:20;;;;;;;17.55;3.15;;;;;;;5.24;83.36;102444.06;5097535;28;20407;-40
2021/03/16 06:18:46;;;;;;;16.50;2.85;;;;;;;5.24;83.30;102438.69;5097268;28;20063;-40
2021/03/16 06:21:20;;;;;;;17.00;3.05;;;;;;;5.24;83.61;102447.56;5097275;28;20111;-40
2021/03/16 06:23:54;;;;;;;18.85;3.28;;;;;;;5.29;83.51;102447.09;5096819;28;20043;-40
2021/03/16 06:26:19;;;;;;;16.90;2.90;;;;;;;5.32;83.38;102447.66;5096889;28;20040;-40
2021/03/16 06:28:45;;;;;;;18.65;2.83;;;;;;;5.36;83.53;102453.50;5096473;28;20031;-40
2021/03/16 06:31:20;;;;;;;21.60;3.13;;;;;;;5.40;83.48;102449.53;5097126;28;20032;-40
2021/03/16 06:33:45;;;;;;;15.15;2.80;;;;;;;5.38;83.31;102444.31;5096695;28;20323;-40
2021/03/16 06:36:11;;;;;;;20.30;3.37;;;;;;;5.41;83.08;102454.72;5096129;28;20031;-40
2021/03/16 06:38:38;;;;;;;21.43;3.50;;;;;;;5.42;83.34;102452.91;5096019;28;20499;-40
2021/03/16 06:41:11;;;;;;;18.63;3.08;;;;;;;5.43;82.90;102450.06;5096049;28;20070;-40
2021/03/16 06:43:37;;;;;;;18.70;3.53;;;;;;;5.46;83.04;102448.03;5095807;28;20050;-40
2021/03/16 06:46:02;;;;;;;13.10;3.25;;;;;;;5.46;83.43;102448.03;5096126;28;20036;-41
2021/03/16 06:48:33;;;;;;;18.95;3.65;;;;;;;5.46;83.08;102446.19;5095939;28;20088;-40
2021/03/16 06:51:11;;;;;;;19.40;2.88;;;;;;;5.50;83.30;102449.41;5096461;28;20076;-41
2021/03/16 06:53:36;;;;;;;26.40;4.38;;;;;;;5.48;83.30;102446.91;5096610;28;20337;-41
2021/03/16 06:56:02;;;;;;;20.52;4.53;;;;;;;5.53;83.51;102457.16;5095973;28;20058;-41
2021/03/16 06:58:32;;;;;;;20.90;3.40;;;;;;;5.56;83.28;102451.47;5095669;28;20020;-41
2021/03/16 07:01:05;;;;;;;19.55;4.45;;;;;;;5.57;83.07;102453.16;5095880;28;20269;-41
2021/03/16 07:03:31;;;;;;;15.80;3.03;;;;;;;5.58;83.10;102450.31;5096038;28;20028;-41
2021/03/16 07:06:20;;;;;;;17.93;3.20;;;;;;;5.67;83.74;102461.94;5095587;28;20411;-41
2021/03/16 07:08:47;;;;;;;17.98;3.17;;;;;;;5.67;83.04;102454.72;5095661;28;20270;-41
2021/03/16 07:11:23;;;;;;;12.57;2.97;;;;;;;5.71;83.17;102463.31;5094475;28;20039;-41
2021/03/16 07:13:48;;;;;;;18.23;3.23;;;;;;;5.75;82.98;102459.28;5095531;28;20028;-41
2021/03/16 07:16:14;;;;;;;18.05;3.40;;;;;;;5.79;83.33;102460.66;5095552;28;20036;-41
2021/03/16 07:18:42;;;;;;;15.45;3.08;;;;;;;5.81;82.57;102466.72;5095320;28;20539;-41
2021/03/16 07:21:11;;;;;;;27.38;3.78;;;;;;;5.82;82.91;102464.88;5095452;28;20059;-41
2021/03/16 07:23:48;;;;;;;17.70;3.88;;;;;;;5.85;82.81;102475.28;5095340;28;20383;-41
2021/03/16 07:26:14;;;;;;;16.27;3.80;;;;;;;5.86;82.90;102469.75;5095725;28;20063;-41
2021/03/16 07:28:40;;;;;;;23.10;3.42;;;;;;;5.85;82.41;102476.09;5095874;28;20081;-41
2021/03/16 07:31:05;;;;;;;19.13;3.83;;;;;;;5.87;82.69;102474.13;5095804;28;20397;-41
2021/03/16 07:33:31;;;;;;;16.88;3.10;;;;;;;5.91;82.20;102477.34;5095246;28;20024;-41
2021/03/16 07:35:57;;;;;;;17.00;3.33;;;;;;;5.92;82.20;102473.69;5095308;28;20129;-41
2021/03/16 07:38:23;;;;;;;18.95;3.95;;;;;;;5.98;82.77;102480.25;5095084;28;20028;-41
2021/03/16 07:40:50;;;;;;;27.02;5.25;;;;;;;6.00;82.40;102473.69;5094828;28;20031;-41
2021/03/16 07:43:16;;;;;;;27.60;4.53;;;;;;;6.06;82.28;102474.91;5094969;28;20103;-41
2021/03/16 07:45:41;;;;;;;20.50;3.30;;;;;;;6.06;81.18;102478.44;5095658;28;20405;-41
2021/03/16 07:48:20;;;;;;;17.83;3.67;;;;;;;6.09;81.34;102485.31;5094980;28;20040;-41
2021/03/16 07:50:46;;;;;;;18.48;3.35;;;;;;;6.06;81.62;102483.81;5095491;28;20103;-41
2021/03/16 07:53:23;;;;;;;19.77;3.80;;;;;;;6.15;82.09;102485.53;5094832;28;20085;-41
2021/03/16 07:55:49;;;;;;;18.58;3.90;;;;;;;6.15;81.47;102492.75;5095603;28;20039;-41
2021/03/16 07:58:15;;;;;;;17.53;4.10;;;;;;;6.16;81.24;102494.44;5094609;28;20020;-41
2021/03/16 08:00:40;;;;;;;;;;;;;;;6.25;81.37;102493.47;5094883;28;20032;-41
2021/03/16 08:03:06;;;;;;;18.95;3.63;;;;;;;6.23;81.05;102490.09;5094651;28;19915;-41
2021/03/16 08:05:44;;;;;;;16.73;3.72;;;;;;;6.31;80.62;102495.50;5095516;28;20349;-41
2021/03/16 08:08:16;;;;;;;13.25;2.92;;;;;;;6.39;80.39;102490.16;5093580;28;20035;-41
2021/03/16 08:10:42;;;;;;;15.32;3.40;;;;;;;6.53;80.20;102485.13;5093526;28;20040;-41
2021/03/16 08:13:21;;;;;;;19.40;3.77;;;;;;;6.68;80.14;102488.88;5094504;28;20424;-42
2021/03/16 08:15:48;;;;;;;15.60;3.13;;;;;;;6.72;78.65;102485.69;5095139;28;20139;-41
2021/03/16 08:18:26;;;;;;;18.55;3.13;;;;;;;6.77;78.57;102489.72;5094258;28;20107;-40
2021/03/16 08:20:52;;;;;;;12.48;2.80;;;;;;;6.77;79.75;102495.94;5094915;28;20035;-40
2021/03/16 08:23:17;;;;;;;14.85;2.78;;;;;;;6.83;78.92;102498.00;5094450;28;20380;-41
2021/03/16 08:25:46;;;;;;;17.73;3.27;;;;;;;6.87;78.98;102493.09;5094342;28;20152;-41
2021/03/16 08:28:15;;;;;;;15.52;2.83;;;;;;;6.88;78.24;102500.16;5094288;28;20387;-41
2021/03/16 08:30:41;;;;;;;14.48;3.10;;;;;;;6.91;78.90;102499.81;5094504;28;20078;-41
2021/03/16 08:33:14;;;;;;;17.52;3.50;;;;;;;6.88;78.07;102501.03;5093828;28;20524;-42
2021/03/16 08:35:46;;;;;;;14.70;2.75;;;;;;;6.89;77.72;102502.69;5094232;28;20032;-41
2021/03/16 08:38:20;;;;;;;11.00;2.63;;;;;;;7.01;78.12;102507.75;5094071;28;20074;-41
2021/03/16 08:40:46;;;;;;;16.73;3.30;;;;;;;7.04;77.85;102505.56;5094154;28;20041;-42
2021/03/16 08:43:11;;;;;;;12.95;3.08;;;;;;;7.06;77.46;102503.53;5094065;28;20151;-41
2021/03/16 08:45:37;;;;;;;17.90;3.63;;;;;;;7.02;77.22;102494.13;5094876;28;20107;-41
2021/03/16 08:48:03;;;;;;;12.97;2.77;;;;;;;7.03;77.51;102497.66;5093920;28;20043;-41
2021/03/16 08:50:28;;;;;;;12.90;3.08;;;;;;;7.05;76.79;102506.41;5093926;28;20074;-41
2021/03/16 08:52:54;;;;;;;13.63;3.03;;;;;;;7.03;76.52;102497.66;5093925;28;20028;-41
2021/03/16 08:55:24;;;;;;;14.40;3.27;;;;;;;7.03;76.89;102508.41;5093668;28;20020;-41
2021/03/16 08:57:51;;;;;;;13.27;2.78;;;;;;;7.03;76.26;102505.72;5093432;28;20036;-41
2021/03/16 09:00:16;;;;;;;17.27;3.20;;;;;;;7.01;76.42;102511.28;5094393;28;20029;-41
2021/03/16 09:02:41;;;;;;;16.00;3.93;;;;;;;7.03;76.29;102508.41;5093512;28;20032;-40
2021/03/16 09:05:18;;;;;;;16.73;3.67;;;;;;;7.09;76.51;102505.91;5092462;28;20039;-40
2021/03/16 09:07:43;;;;;;;17.92;3.30;;;;;;;7.14;76.83;102505.41;5093461;28;20496;-40
2021/03/16 09:10:10;;;;;;;16.07;2.33;;;;;;;7.26;76.27;102517.50;5093697;28;20097;-40
2021/03/16 09:12:41;;;;;;;12.85;2.75;;;;;;;7.35;75.85;102518.34;5093328;28;20036;-41
2021/03/16 09:15:12;;;;;;;13.63;2.78;;;;;;;7.44;76.22;102518.16;5094069;28;20087;-41
2021/03/16 09:17:39;;;;;;;20.42;2.85;;;;;;;7.45;75.01;102524.38;5093156;28;20027;-40
2021/03/16 09:20:11;;;;;;;16.10;3.30;;;;;;;7.51;76.05;102523.69;5093804;28;20030;-41
2021/03/16 09:22:38;;;;;;;16.02;2.90;;;;;;;7.53;75.23;102518.16;5093310;28;20031;-41
2021/03/16 09:25:05;;;;;;;18.33;2.97;;;;;;;7.49;74.48;102520.34;5093799;28;20395;-41
2021/03/16 09:27:31;;;;;;;15.73;3.35;;;;;;;7.47;74.64;102519.69;5093323;28;20472;-40
2021/03/16 09:29:57;;;;;;;14.00;2.83;;;;;;;7.49;74.43;102515.81;5093507;28;20103;-41
2021/03/16 09:32:22;;;;;;;12.17;2.47;;;;;;;7.51;74.46;102512.09;5093419;28;20395;-41
2021/03/16 09:34:48;;;;;;;17.43;3.20;;;;;;;7.51;73.34;102520.19;5097386;28;20262;-40
2021/03/16 09:37:15;;;;;;;12.07;2.47;;;;;;;7.50;74.28;102511.25;5097705;28;20028;-41
2021/03/16 09:39:59;;;;;;;9.50;2.22;;;;;;;7.54;74.71;102511.78;5098251;28;20048;-41
2021/03/16 09:42:39;;;;;;;9.43;2.38;;;;;;;7.54;74.06;102509.91;5097038;28;20480;-40
2021/03/16 09:45:20;;;;;;;11.82;2.58;;;;;;;7.47;73.92;102507.06;5098162;28;20055;-41
2021/03/16 09:47:46;;;;;;;11.40;2.70;;;;;;;7.45;72.93;102517.16;5097903;28;20032;-41
2021/03/16 09:50:38;;;;;;;16.13;2.92;;;;;;;7.49;74.41;102512.28;5097914;28;20028;-41
2021/03/16 09:53:05;;;;;;;16.20;3.60;;;;;;;7.46;73.81;102510.75;5096208;28;20032;-41
2021/03/16 09:55:32;;;;;;;15.88;2.90;;;;;;;7.48;74.36;102514.13;5097729;28;20438;-41
2021/03/16 09:57:57;;;;;;;;;;;;;;;7.57;74.61;102511.44;5097479;28;20090;-41
2021/03/16 10:00:25;;;;;;;15.18;2.88;;;;;;;7.49;74.18;102504.19;5097369;28;20355;-40
2021/03/16 10:03:10;;;;;;;12.48;2.22;;;;;;;7.47;73.67;102512.47;5096719;28;20024;-41
2021/03/16 10:05:37;;;;;;;10.38;2.13;;;;;;;7.33;75.49;102523.91;5097547;28;20024;-41
2021/03/16 10:08:02;;;;;;;;;;;;;;;7.36;75.00;102526.25;5097693;28;20032;-41
2021/03/16 10:10:33;;;;;;;12.45;1.83;;;;;;;7.17;74.94;102521.19;5097180;28;20008;-40
2021/03/16 10:13:08;;;;;;;12.57;1.80;;;;;;;7.14;75.93;102517.00;5097479;28;20035;-41
2021/03/16 10:15:44;;;;;;;10.88;2.10;;;;;;;7.16;75.70;102520.34;5097451;28;20061;-41
2021/03/16 10:18:13;;;;;;;12.98;2.65;;;;;;;7.12;76.78;102526.22;5097241;28;20027;-40
2021/03/16 10:20:40;;;;;;;9.20;2.15;;;;;;;7.10;76.41;102518.34;5096960;28;20521;-40
2021/03/16 10:23:20;;;;;;;12.18;2.38;;;;;;;7.12;76.43;102524.38;5096608;28;20067;-40
2021/03/16 10:25:57;;;;;;;9.15;1.80;;;;;;;7.16;76.83;102520.34;5096285;28;20069;-40
2021/03/16 10:28:36;;;;;;;8.43;1.85;;;;;;;7.23;76.35;102525.91;5095517;28;20485;-41
2021/03/16 10:31:27;;;;;;;5.32;1.67;;;;;;;7.15;76.21;102518.69;5097085;28;20035;-41
2021/03/16 10:33:55;;;;;;;7.13;1.48;;;;;;;7.06;74.61;102526.91;5095244;28;20067;-41
2021/03/16 10:36:21;;;;;;;4.85;1.08;;;;;;;7.04;74.85;102520.88;5095422;28;20027;-41
2021/03/16 10:38:49;;;;;;;5.30;1.20;;;;;;;7.02;74.19;102528.25;5096566;28;20384;-41
2021/03/16 10:41:19;;;;;;;4.97;1.20;;;;;;;7.08;73.01;102530.28;5096530;28;20028;-41
2021/03/16 10:43:44;;;;;;;4.00;0.88;;;;;;;7.07;71.28;102526.72;5096806;28;20028;-41
2021/03/16 10:46:10;;;;;;;3.10;0.88;;;;;;;7.10;70.38;102525.56;5095012;28;20032;-41
2021/03/16 10:48:35;;;;;;;5.23;1.03;;;;;;;7.14;71.24;102517.00;5096149;28;20532;-41
2021/03/16 10:51:01;;;;;;;3.17;0.70;;;;;;;7.13;70.92;102520.72;5096238;28;20122;-41
2021/03/16 10:53:27;;;;;;;6.85;1.20;;;;;;;7.03;69.89;102503.88;5096018;28;20031;-41
2021/03/16 10:55:52;;;;;;;4.27;1.13;;;;;;;7.04;70.76;102516.31;5096100;28;20480;-41
2021/03/16 10:58:17;;;;;;;4.17;0.93;;;;;;;7.01;72.99;102510.44;5096671;28;20020;-41
2021/03/16 11:00:44;;;;;;;4.57;0.83;;;;;;;7.04;73.51;102513.63;5095926;28;20471;-41
2021/03/16 11:03:09;;;;;;;5.43;1.23;;;;;;;6.98;73.98;102511.63;5095838;28;20039;-41
2021/03/16 11:05:34;;;;;;;5.80;1.53;;;;;;;6.94;73.89;102519.16;5096724;28;20040;-41
2021/03/16 11:08:00;;;;;;;9.13;1.57;;;;;;;6.90;75.00;102515.13;5095502;28;20036;-41
2021/03/16 11:10:26;;;;;;;9.25;2.17;;;;;;;6.81;75.45;102510.75;5095686;28;20447;-41
2021/03/16 11:12:52;;;;;;;7.13;1.80;;;;;;;6.77;75.50;102506.69;5095650;28;20032;-40
2021/03/16 11:15:18;;;;;;;5.00;1.40;;;;;;;6.70;76.19;102525.34;5095350;28;20127;-41
2021/03/16 11:17:44;;;;;;;5.65;1.30;;;;;;;6.66;76.95;102517.78;5095434;28;20112;-46
2021/03/16 11:20:10;;;;;;;7.03;1.20;;;;;;;6.70;76.09;102519.13;5095825;28;20028;-41
2021/03/16 11:22:36;;;;;;;4.35;1.05;;;;;;;6.69;75.11;102522.84;5095445;28;20152;-41
2021/03/16 11:25:01;;;;;;;4.32;1.30;;;;;;;6.76;75.19;102518.47;5096168;28;20032;-41
2021/03/16 11:27:27;;;;;;;4.30;1.20;;;;;;;6.85;74.75;102516.63;5095324;28;20024;-41
2021/03/16 11:29:52;;;;;;;3.47;0.87;;;;;;;6.93;73.61;102516.66;5096272;28;20028;-41
2021/03/16 11:32:18;;;;;;;6.53;1.30;;;;;;;6.95;73.78;102512.78;5095267;28;20495;-40
2021/03/16 11:34:43;;;;;;;4.07;1.10;;;;;;;6.97;74.04;102521.50;5094664;28;20024;-40